createdAt,value
2018-10-17T00:01:33.976Z,11.10
2018-10-17T00:04:02.151Z,11.10
2018-10-17T00:06:30.326Z,11.10
2018-10-17T00:08:58.527Z,11.10
2018-10-17T00:11:26.699Z,11.10
2018-10-17T00:13:54.879Z,11.10
2018-10-17T00:16:23.055Z,11.10
2018-10-17T00:18:51.246Z,11.00
2018-10-17T00:21:19.403Z,11.00
2018-10-17T00:23:47.582Z,11.00
2018-10-17T00:26:15.747Z,11.00
2018-10-17T00:28:43.923Z,10.90
2018-10-17T00:31:12.185Z,11.00
2018-10-17T00:33:40.368Z,11.00
2018-10-17T00:36:08.588Z,11.00
2018-10-17T00:38:36.780Z,10.80
2018-10-17T00:41:05.032Z,10.70
2018-10-17T00:43:33.151Z,10.70
2018-10-17T00:46:01.319Z,10.60
2018-10-17T00:48:29.499Z,10.60
2018-10-17T00:50:57.666Z,10.60
2018-10-17T00:53:25.835Z,10.60
2018-10-17T00:55:54.462Z,10.60
2018-10-17T00:58:22.634Z,10.60
2018-10-17T01:00:50.815Z,10.60
2018-10-17T01:03:19.014Z,10.60
2018-10-17T01:05:47.199Z,10.60
2018-10-17T01:08:15.375Z,10.50
2018-10-17T01:10:43.555Z,10.50
2018-10-17T01:13:11.768Z,10.60
2018-10-17T01:15:39.957Z,10.70
2018-10-17T01:18:08.127Z,10.60
2018-10-17T01:20:36.330Z,10.60
2018-10-17T01:23:04.698Z,10.60
2018-10-17T01:25:32.823Z,10.60
2018-10-17T01:28:00.987Z,10.50
2018-10-17T01:30:29.167Z,10.50
2018-10-17T01:32:57.331Z,10.50
2018-10-17T01:35:25.515Z,10.50
2018-10-17T01:37:53.678Z,10.40
2018-10-17T01:40:21.893Z,10.30
2018-10-17T01:42:50.034Z,10.30
2018-10-17T01:45:18.211Z,10.40
2018-10-17T01:47:46.387Z,10.40
2018-10-17T01:50:14.571Z,10.30
2018-10-17T01:52:42.733Z,10.30
2018-10-17T01:55:10.953Z,10.20
2018-10-17T01:57:39.074Z,10.10
2018-10-17T02:00:07.413Z,10.10
2018-10-17T02:02:35.599Z,10.10
2018-10-17T02:05:03.850Z,10.00
2018-10-17T02:07:32.065Z,10.00
2018-10-17T02:10:00.311Z,10.10
2018-10-17T02:12:28.528Z,10.00
2018-10-17T02:14:56.710Z,10.00
2018-10-17T02:17:24.904Z,10.00
2018-10-17T02:19:53.084Z,9.90
2018-10-17T02:22:21.271Z,9.90
2018-10-17T02:24:49.591Z,9.90
2018-10-17T02:27:17.783Z,10.00
2018-10-17T02:29:45.968Z,10.10
2018-10-17T02:32:14.155Z,10.00
2018-10-17T02:34:47.674Z,10.00
2018-10-17T02:37:15.985Z,9.90
2018-10-17T02:39:44.125Z,9.80
2018-10-17T02:42:12.994Z,9.70
2018-10-17T02:44:41.698Z,9.70
2018-10-17T02:47:09.969Z,9.70
2018-10-17T02:49:38.075Z,9.70
2018-10-17T02:52:06.263Z,9.80
2018-10-17T02:54:34.627Z,9.70
2018-10-17T02:57:02.819Z,9.70
2018-10-17T02:59:31.021Z,9.70
2018-10-17T03:01:59.265Z,9.80
2018-10-17T03:04:27.485Z,9.60
2018-10-17T03:06:55.737Z,9.60
2018-10-17T03:09:23.871Z,9.60
2018-10-17T03:11:52.052Z,9.60
2018-10-17T03:14:20.214Z,9.60
2018-10-17T03:16:48.387Z,9.50
2018-10-17T03:19:16.635Z,9.50
2018-10-17T03:21:44.751Z,9.50
2018-10-17T03:24:12.927Z,9.60
2018-10-17T03:26:41.092Z,9.50
2018-10-17T03:29:09.340Z,9.60
2018-10-17T03:31:37.486Z,9.50
2018-10-17T03:34:05.753Z,9.50
2018-10-17T03:36:33.919Z,9.40
2018-10-17T03:39:02.103Z,9.40
2018-10-17T03:41:30.266Z,9.40
2018-10-17T03:43:58.450Z,9.40
2018-10-17T03:46:27.275Z,9.30
2018-10-17T03:48:55.508Z,9.30
2018-10-17T03:51:23.643Z,9.40
2018-10-17T03:53:51.882Z,9.50
2018-10-17T03:56:20.101Z,9.50
2018-10-17T03:58:48.319Z,9.60
2018-10-17T04:01:16.592Z,9.60
2018-10-17T04:03:44.682Z,9.50
2018-10-17T04:06:12.842Z,9.40
2018-10-17T04:08:41.015Z,9.40
2018-10-17T04:11:09.259Z,9.40
2018-10-17T04:13:37.394Z,9.50
2018-10-17T04:16:05.563Z,9.40
2018-10-17T04:18:33.739Z,9.40
2018-10-17T04:21:02.111Z,9.30
2018-10-17T04:23:30.300Z,9.30
2018-10-17T04:25:58.463Z,9.20
2018-10-17T04:28:26.635Z,9.10
2018-10-17T04:30:54.836Z,9.10
2018-10-17T04:33:23.072Z,9.10
2018-10-17T04:35:51.264Z,9.10
2018-10-17T04:38:19.456Z,9.10
2018-10-17T04:40:47.667Z,9.10
2018-10-17T04:43:16.042Z,9.30
2018-10-17T04:45:44.194Z,9.20
2018-10-17T04:48:12.364Z,9.10
2018-10-17T04:50:40.701Z,9.20
2018-10-17T04:53:09.886Z,9.20
2018-10-17T04:55:38.054Z,9.20
2018-10-17T04:58:06.260Z,9.30
2018-10-17T05:00:34.426Z,9.40
2018-10-17T05:03:02.594Z,9.40
2018-10-17T05:05:30.830Z,9.30
2018-10-17T05:07:59.100Z,9.30
2018-10-17T05:10:27.468Z,9.20
2018-10-17T05:12:55.912Z,9.20
2018-10-17T05:15:24.241Z,9.20
2018-10-17T05:17:52.380Z,9.20
2018-10-17T05:20:20.829Z,9.30
2018-10-17T05:22:49.341Z,9.30
2018-10-17T05:25:18.259Z,9.20
2018-10-17T05:27:46.915Z,9.10
2018-10-17T05:30:15.149Z,9.10
2018-10-17T05:32:43.351Z,9.10
2018-10-17T05:35:12.242Z,9.10
2018-10-17T05:37:40.399Z,9.10
2018-10-17T05:40:08.511Z,9.10
2018-10-17T05:42:36.707Z,9.10
2018-10-17T05:45:06.040Z,9.10
2018-10-17T05:47:34.370Z,9.20
2018-10-17T05:50:02.667Z,9.10
2018-10-17T05:52:30.968Z,9.10
2018-10-17T05:54:59.163Z,9.10
2018-10-17T05:57:27.339Z,9.10
2018-10-17T05:59:55.544Z,9.10
2018-10-17T06:02:26.443Z,9.10
2018-10-17T06:04:55.160Z,9.10
2018-10-17T06:07:23.532Z,9.20
2018-10-17T06:09:52.343Z,9.20
2018-10-17T06:12:20.615Z,9.40
2018-10-17T06:14:48.807Z,9.50
2018-10-17T06:17:17.041Z,9.60
2018-10-17T06:19:45.306Z,9.70
2018-10-17T06:22:13.609Z,9.60
2018-10-17T06:24:41.935Z,9.70
2018-10-17T06:27:10.913Z,9.80
2018-10-17T06:29:39.094Z,9.90
2018-10-17T06:32:07.299Z,10.00
2018-10-17T06:34:35.553Z,10.00
2018-10-17T06:37:05.487Z,10.00
2018-10-17T06:39:33.752Z,10.10
2018-10-17T06:42:02.022Z,10.20
2018-10-17T06:44:30.237Z,10.40
2018-10-17T06:46:58.512Z,10.40
2018-10-17T06:49:26.655Z,10.60
2018-10-17T06:51:54.848Z,10.70
2018-10-17T06:54:23.123Z,10.90
2018-10-17T06:56:51.471Z,11.00
2018-10-17T06:59:19.675Z,11.10
2018-10-17T07:01:47.997Z,11.20
2018-10-17T07:04:16.072Z,11.40
2018-10-17T07:06:44.258Z,11.50
2018-10-17T07:09:12.460Z,11.50
2018-10-17T07:11:40.655Z,11.60
2018-10-17T07:14:08.831Z,11.70
2018-10-17T07:16:37.004Z,11.80
2018-10-17T07:19:05.305Z,11.80
2018-10-17T07:21:33.396Z,11.90
2018-10-17T07:24:01.579Z,12.00
2018-10-17T07:26:29.783Z,12.10
2018-10-17T07:28:58.018Z,12.20
2018-10-17T07:31:26.180Z,12.30
2018-10-17T07:33:54.392Z,12.40
2018-10-17T07:36:22.603Z,12.50
2018-10-17T07:38:50.831Z,12.60
2018-10-17T07:41:19.007Z,12.70
2018-10-17T07:43:47.203Z,12.80
2018-10-17T07:46:15.375Z,12.90
2018-10-17T07:48:43.590Z,13.00
2018-10-17T07:51:11.784Z,13.20
2018-10-17T07:53:40.026Z,13.20
2018-10-17T07:56:08.211Z,13.30
2018-10-17T07:58:36.428Z,13.30
2018-10-17T08:01:04.650Z,13.40
2018-10-17T08:03:32.848Z,13.50
2018-10-17T08:06:01.081Z,13.60
2018-10-17T08:08:29.247Z,13.80
2018-10-17T08:10:57.451Z,13.80
2018-10-17T08:13:25.775Z,13.90
2018-10-17T08:15:53.972Z,14.00
2018-10-17T08:18:22.149Z,14.00
2018-10-17T08:20:50.335Z,14.20
2018-10-17T08:23:18.511Z,14.40
2018-10-17T08:25:46.704Z,14.50
2018-10-17T08:28:14.907Z,14.70
2018-10-17T08:30:43.347Z,14.80
2018-10-17T08:33:11.573Z,14.90
2018-10-17T08:35:39.907Z,15.10
2018-10-17T08:38:08.072Z,15.20
2018-10-17T08:40:36.268Z,15.20
2018-10-17T08:43:05.295Z,15.20
2018-10-17T08:45:33.527Z,15.40
2018-10-17T08:48:01.694Z,15.50
2018-10-17T08:50:29.927Z,15.60
2018-10-17T08:52:58.059Z,15.80
2018-10-17T08:55:26.247Z,15.80
2018-10-17T08:57:54.510Z,16.10
2018-10-17T09:00:22.612Z,16.20
2018-10-17T09:02:50.795Z,16.30
2018-10-17T09:05:18.978Z,16.40
2018-10-17T09:07:47.214Z,16.60
2018-10-17T09:10:15.371Z,16.60
2018-10-17T09:12:43.599Z,16.70
2018-10-17T09:15:11.791Z,16.70
2018-10-17T09:17:40.023Z,16.80
2018-10-17T09:20:08.979Z,16.90
2018-10-17T09:22:37.104Z,17.10
2018-10-17T09:25:05.848Z,17.20
2018-10-17T09:27:34.095Z,17.20
2018-10-17T09:30:02.434Z,17.20
2018-10-17T09:32:30.610Z,17.40
2018-10-17T09:34:58.855Z,17.50
2018-10-17T09:37:27.163Z,17.60
2018-10-17T09:39:55.370Z,17.70
2018-10-17T09:42:23.555Z,17.90
2018-10-17T09:44:51.755Z,17.90
2018-10-17T09:47:19.969Z,18.10
2018-10-17T09:49:48.160Z,18.20
2018-10-17T09:52:16.472Z,18.30
2018-10-17T09:54:44.571Z,18.60
2018-10-17T09:57:12.793Z,18.70
2018-10-17T09:59:40.981Z,18.90
2018-10-17T10:02:09.240Z,19.00
2018-10-17T10:04:37.391Z,19.20
2018-10-17T10:07:05.611Z,19.40
2018-10-17T10:09:33.811Z,19.50
2018-10-17T10:12:02.040Z,19.60
2018-10-17T10:14:30.194Z,19.70
2018-10-17T10:16:58.445Z,20.00
2018-10-17T10:19:26.552Z,19.90
2018-10-17T10:21:54.754Z,19.90
2018-10-17T10:24:22.959Z,19.80
2018-10-17T10:26:51.172Z,19.80
2018-10-17T10:29:19.404Z,20.00
2018-10-17T10:31:47.616Z,20.20
2018-10-17T10:34:15.935Z,20.20
2018-10-17T10:36:44.048Z,20.40
2018-10-17T10:39:13.035Z,20.90
2018-10-17T10:41:41.514Z,20.90
2018-10-17T10:44:09.731Z,21.00
2018-10-17T10:46:37.890Z,21.20
2018-10-17T10:49:06.084Z,21.40
2018-10-17T10:51:34.306Z,21.60
2018-10-17T10:54:02.547Z,21.50
2018-10-17T10:56:30.631Z,21.30
2018-10-17T10:58:58.865Z,21.50
2018-10-17T11:01:26.999Z,21.70
2018-10-17T11:03:55.196Z,21.90
2018-10-17T11:06:23.375Z,22.00
2018-10-17T11:08:51.577Z,22.10
2018-10-17T11:11:19.879Z,22.30
2018-10-17T11:13:48.052Z,22.10
2018-10-17T11:16:16.199Z,22.20
2018-10-17T11:18:44.413Z,22.40
2018-10-17T11:21:12.656Z,22.50
2018-10-17T11:23:40.869Z,22.70
2018-10-17T11:26:09.117Z,23.10
2018-10-17T11:28:37.340Z,23.40
2018-10-17T11:31:05.576Z,23.60
2018-10-17T11:33:33.796Z,23.60
2018-10-17T11:36:01.988Z,23.70
2018-10-17T11:38:30.180Z,23.70
2018-10-17T11:40:58.465Z,23.60
2018-10-17T11:43:26.573Z,23.20
2018-10-17T11:45:54.762Z,23.60
2018-10-17T11:48:22.934Z,23.70
2018-10-17T11:50:51.138Z,24.00
2018-10-17T11:53:19.300Z,24.20
2018-10-17T11:55:47.495Z,24.30
2018-10-17T11:58:15.692Z,24.50
2018-10-17T12:00:43.874Z,24.70
2018-10-17T12:03:12.114Z,24.80
2018-10-17T12:05:40.597Z,24.80
2018-10-17T12:08:08.449Z,25.00
2018-10-17T12:10:36.695Z,25.10
2018-10-17T12:13:04.884Z,25.30
2018-10-17T12:15:33.046Z,25.50
2018-10-17T12:18:01.291Z,25.50
2018-10-17T12:20:29.407Z,25.60
2018-10-17T12:22:57.575Z,25.60
2018-10-17T12:25:25.754Z,25.60
2018-10-17T12:27:54.058Z,25.80
2018-10-17T12:30:22.103Z,25.90
2018-10-17T12:32:50.268Z,25.90
2018-10-17T12:35:18.581Z,26.00
2018-10-17T12:37:46.615Z,26.20
2018-10-17T12:40:14.935Z,26.20
2018-10-17T12:42:42.959Z,26.20
2018-10-17T12:45:11.223Z,26.30
2018-10-17T12:47:39.364Z,26.50
2018-10-17T12:50:08.346Z,26.50
2018-10-17T12:52:36.577Z,26.30
2018-10-17T12:55:05.899Z,26.40
2018-10-17T12:57:33.950Z,26.50
2018-10-17T13:00:02.114Z,26.60
2018-10-17T13:02:30.278Z,26.80
2018-10-17T13:04:58.450Z,27.00
2018-10-17T13:07:26.616Z,26.90
2018-10-17T13:09:55.098Z,26.40
2018-10-17T13:12:23.519Z,26.40
2018-10-17T13:14:51.765Z,26.60
2018-10-17T13:17:19.852Z,26.70
2018-10-17T13:19:48.011Z,26.90
2018-10-17T13:22:16.186Z,27.00
2018-10-17T13:24:44.448Z,27.10
2018-10-17T13:27:12.572Z,27.00
2018-10-17T13:29:40.756Z,27.00
2018-10-17T13:32:08.938Z,27.20
2018-10-17T13:34:37.438Z,27.40
2018-10-17T13:37:05.972Z,27.40
2018-10-17T13:39:34.078Z,27.40
2018-10-17T13:42:02.298Z,27.30
2018-10-17T13:44:30.419Z,27.30
2018-10-17T13:46:58.631Z,27.30
2018-10-17T13:49:26.768Z,27.30
2018-10-17T13:51:54.921Z,27.30
2018-10-17T13:54:23.091Z,27.20
2018-10-17T13:56:51.255Z,27.10
2018-10-17T13:59:19.505Z,27.10
2018-10-17T14:01:47.587Z,26.90
2018-10-17T14:04:15.861Z,26.70
2018-10-17T14:06:43.960Z,26.40
2018-10-17T14:09:12.246Z,26.00
2018-10-17T14:11:40.424Z,25.70
2018-10-17T14:14:08.553Z,25.60
2018-10-17T14:16:36.723Z,25.40
2018-10-17T14:19:04.902Z,25.20
2018-10-17T14:21:33.108Z,25.00
2018-10-17T14:24:01.296Z,24.80
2018-10-17T14:26:29.454Z,24.70
2018-10-17T14:28:57.643Z,24.50
2018-10-17T14:31:25.834Z,24.60
2018-10-17T14:33:54.023Z,24.70
2018-10-17T14:36:22.312Z,24.90
2018-10-17T14:38:50.442Z,25.00
2018-10-17T14:41:18.648Z,25.20
2018-10-17T14:43:46.966Z,25.30
2018-10-17T14:46:15.029Z,25.30
2018-10-17T14:48:43.220Z,25.40
2018-10-17T14:51:11.502Z,25.30
2018-10-17T14:53:39.602Z,25.40
2018-10-17T14:56:07.792Z,25.40
2018-10-17T14:58:35.970Z,25.30
2018-10-17T15:01:04.151Z,25.30
2018-10-17T15:03:32.326Z,25.20
2018-10-17T15:06:00.502Z,25.10
2018-10-17T15:08:28.719Z,25.20
2018-10-17T15:10:57.125Z,25.10
2018-10-17T15:13:25.075Z,24.80
2018-10-17T15:15:53.251Z,24.70
2018-10-17T15:18:21.427Z,24.50
2018-10-17T15:20:49.631Z,24.30
2018-10-17T15:23:17.812Z,24.10
2018-10-17T15:25:46.044Z,23.90
2018-10-17T15:28:14.275Z,23.70
2018-10-17T15:30:42.482Z,23.40
2018-10-17T15:33:10.701Z,23.10
2018-10-17T15:35:38.838Z,22.80
2018-10-17T15:38:07.035Z,22.50
2018-10-17T15:40:35.215Z,22.20
2018-10-17T15:43:03.453Z,22.00
2018-10-17T15:45:31.578Z,21.90
2018-10-17T15:47:59.756Z,21.70
2018-10-17T15:50:27.933Z,21.50
2018-10-17T15:52:56.116Z,21.30
2018-10-17T15:55:24.286Z,21.10
2018-10-17T15:57:52.471Z,20.90
2018-10-17T16:00:20.659Z,20.60
2018-10-17T16:02:48.961Z,20.40
2018-10-17T16:05:17.039Z,20.20
2018-10-17T16:07:45.252Z,20.00
2018-10-17T16:10:13.456Z,19.80
2018-10-17T16:12:41.641Z,19.60
2018-10-17T16:15:10.351Z,19.40
2018-10-17T16:17:38.508Z,19.30
2018-10-17T16:20:08.450Z,19.00
2018-10-17T16:22:36.673Z,18.80
2018-10-17T16:25:05.195Z,18.70
2018-10-17T16:27:33.362Z,18.60
2018-10-17T16:30:01.575Z,18.40
2018-10-17T16:32:29.711Z,18.30
2018-10-17T16:34:57.875Z,18.10
2018-10-17T16:37:26.048Z,17.90
2018-10-17T16:39:54.202Z,17.80
2018-10-17T16:42:22.375Z,17.80
2018-10-17T16:44:50.554Z,17.60
2018-10-17T16:47:18.760Z,17.50
2018-10-17T16:49:47.108Z,17.40
2018-10-17T16:52:15.157Z,17.40
2018-10-17T16:54:43.318Z,17.20
2018-10-17T16:57:11.526Z,17.10
2018-10-17T16:59:40.114Z,17.00
2018-10-17T17:02:08.711Z,16.90
2018-10-17T17:04:36.996Z,16.80
2018-10-17T17:07:05.327Z,16.70
2018-10-17T17:09:33.499Z,16.70
2018-10-17T17:12:01.717Z,16.60
2018-10-17T17:14:29.877Z,16.40
2018-10-17T17:16:58.012Z,16.40
2018-10-17T17:19:26.178Z,16.30
2018-10-17T17:21:54.357Z,16.30
2018-10-17T17:24:22.531Z,16.10
2018-10-17T17:26:50.737Z,16.00
2018-10-17T17:29:18.906Z,16.00
2018-10-17T17:31:47.088Z,15.90
2018-10-17T17:34:15.259Z,15.80
2018-10-17T17:36:43.437Z,15.80
2018-10-17T17:39:11.602Z,15.70
2018-10-17T17:41:39.804Z,15.60
2018-10-17T17:44:07.980Z,15.50
2018-10-17T17:46:36.198Z,15.50
2018-10-17T17:49:04.495Z,15.40
2018-10-17T17:51:32.659Z,15.40
2018-10-17T17:54:00.831Z,15.30
2018-10-17T17:56:29.016Z,15.20
2018-10-17T17:58:57.193Z,15.20
2018-10-17T18:01:25.374Z,15.10
2018-10-17T18:03:53.600Z,15.00
2018-10-17T18:06:21.801Z,15.00
2018-10-17T18:08:49.971Z,14.90
2018-10-17T18:11:22.352Z,14.90
2018-10-17T18:13:51.091Z,14.80
2018-10-17T18:16:19.262Z,14.70
2018-10-17T18:18:47.595Z,14.70
2018-10-17T18:21:15.995Z,14.60
2018-10-17T18:23:44.654Z,14.60
2018-10-17T18:26:13.061Z,14.50
2018-10-17T18:28:41.814Z,14.50
2018-10-17T18:31:10.083Z,14.40
2018-10-17T18:33:38.366Z,14.30
2018-10-17T18:36:06.641Z,14.20
2018-10-17T18:38:34.814Z,14.30
2018-10-17T18:41:02.982Z,14.20
2018-10-17T18:43:31.159Z,14.10
2018-10-17T18:45:59.339Z,14.00
2018-10-17T18:48:27.528Z,14.00
2018-10-17T18:50:55.824Z,13.90
2018-10-17T18:53:23.994Z,13.90
2018-10-17T18:55:52.348Z,13.80
2018-10-17T18:58:20.411Z,13.80
2018-10-17T19:00:48.582Z,13.70
2018-10-17T19:03:16.851Z,13.70
2018-10-17T19:05:44.935Z,13.60
2018-10-17T19:08:13.113Z,13.60
2018-10-17T19:10:41.295Z,13.60
2018-10-17T19:13:09.458Z,13.60
2018-10-17T19:15:37.639Z,13.50
2018-10-17T19:18:06.168Z,13.40
2018-10-17T19:20:34.334Z,13.40
2018-10-17T19:23:02.512Z,13.40
2018-10-17T19:25:30.705Z,13.40
2018-10-17T19:27:58.867Z,13.40
2018-10-17T19:30:27.050Z,13.30
2018-10-17T19:32:55.276Z,13.20
2018-10-17T19:35:23.418Z,13.20
2018-10-17T19:37:51.736Z,13.20
2018-10-17T19:40:19.952Z,13.20
2018-10-17T19:42:48.148Z,13.10
2018-10-17T19:45:16.376Z,13.10
2018-10-17T19:47:44.518Z,13.00
2018-10-17T19:50:12.675Z,12.90
2018-10-17T19:52:40.853Z,12.90
2018-10-17T19:55:10.010Z,12.80
2018-10-17T19:57:38.634Z,12.80
2018-10-17T20:00:09.330Z,12.80
2018-10-17T20:02:37.506Z,12.70
2018-10-17T20:05:05.978Z,12.70
2018-10-17T20:07:34.194Z,12.80
2018-10-17T20:10:02.339Z,12.80
2018-10-17T20:12:30.506Z,12.80
2018-10-17T20:14:58.761Z,12.70
2018-10-17T20:17:26.888Z,12.50
2018-10-17T20:19:55.064Z,12.40
2018-10-17T20:22:23.268Z,12.40
2018-10-17T20:24:51.528Z,12.50
2018-10-17T20:27:19.699Z,12.50
2018-10-17T20:29:47.878Z,12.50
2018-10-17T20:32:16.034Z,12.40
2018-10-17T20:34:44.204Z,12.30
2018-10-17T20:37:12.374Z,12.30
2018-10-17T20:39:40.535Z,12.30
2018-10-17T20:42:08.745Z,12.30
2018-10-17T20:44:36.878Z,12.20
2018-10-17T20:47:05.608Z,12.20
2018-10-17T20:49:33.766Z,12.10
2018-10-17T20:52:01.943Z,12.20
2018-10-17T20:54:30.113Z,12.20
2018-10-17T20:56:58.274Z,12.20
2018-10-17T20:59:26.706Z,12.10
2018-10-17T21:01:55.024Z,12.10
2018-10-17T21:04:23.160Z,12.00
2018-10-17T21:06:51.337Z,12.00
2018-10-17T21:09:19.518Z,12.00
2018-10-17T21:11:47.686Z,11.90
2018-10-17T21:14:15.976Z,11.90
2018-10-17T21:16:44.023Z,11.90
2018-10-17T21:19:12.219Z,11.80
2018-10-17T21:21:40.370Z,11.80
2018-10-17T21:24:08.545Z,11.70
2018-10-17T21:26:41.285Z,11.70
2018-10-17T21:29:09.575Z,11.60
2018-10-17T21:31:38.303Z,11.60
2018-10-17T21:34:06.479Z,11.60
2018-10-17T21:36:34.637Z,11.60
2018-10-17T21:39:03.037Z,11.60
2018-10-17T21:41:31.214Z,11.60
2018-10-17T21:43:59.411Z,11.60
2018-10-17T21:46:27.553Z,11.60
2018-10-17T21:48:55.726Z,11.40
2018-10-17T21:51:23.992Z,11.40
2018-10-17T21:53:52.155Z,11.40
2018-10-17T21:56:20.323Z,11.30
2018-10-17T21:58:48.515Z,11.30
2018-10-17T22:01:16.720Z,11.30
2018-10-17T22:03:44.923Z,11.20
2018-10-17T22:06:13.102Z,11.30
2018-10-17T22:08:41.263Z,11.20
2018-10-17T22:11:09.463Z,11.20
2018-10-17T22:13:37.671Z,11.20
2018-10-17T22:16:05.864Z,11.10
2018-10-17T22:18:34.038Z,11.10
2018-10-17T22:21:02.232Z,11.10
2018-10-17T22:23:30.410Z,11.00
2018-10-17T22:25:58.605Z,11.00
2018-10-17T22:28:26.771Z,11.00
2018-10-17T22:30:54.958Z,10.90
2018-10-17T22:33:23.135Z,10.90
2018-10-17T22:35:51.322Z,10.90
2018-10-17T22:38:19.500Z,10.80
2018-10-17T22:40:47.721Z,10.80
2018-10-17T22:43:15.935Z,10.90
2018-10-17T22:45:44.135Z,10.90
2018-10-17T22:48:12.311Z,10.70
2018-10-17T22:50:40.494Z,10.70
2018-10-17T22:53:08.666Z,10.70
2018-10-17T22:55:36.855Z,10.70
2018-10-17T22:58:05.279Z,10.80
2018-10-17T23:00:33.467Z,10.60
2018-10-17T23:03:01.642Z,10.60
2018-10-17T23:05:29.826Z,10.50
2018-10-17T23:07:58.043Z,10.50
2018-10-17T23:10:26.207Z,10.50
2018-10-17T23:12:54.772Z,10.50
2018-10-17T23:15:22.970Z,10.40
2018-10-17T23:17:51.142Z,10.40
2018-10-17T23:20:19.330Z,10.40
2018-10-17T23:22:47.507Z,10.40
2018-10-17T23:25:15.694Z,10.40
2018-10-17T23:27:43.875Z,10.40
2018-10-17T23:30:12.076Z,10.50
2018-10-17T23:32:40.410Z,10.40
2018-10-17T23:35:08.629Z,10.30
2018-10-17T23:37:36.935Z,10.30
2018-10-17T23:40:05.602Z,10.20
2018-10-17T23:42:33.994Z,10.10
2018-10-17T23:45:02.071Z,10.10
2018-10-17T23:47:30.274Z,10.10
2018-10-17T23:49:58.475Z,10.10
2018-10-17T23:52:26.659Z,10.10
2018-10-17T23:54:54.839Z,10.20
2018-10-17T23:57:23.015Z,10.10
2018-10-17T23:59:51.195Z,10.00
